Valentino Lombardo

Chief Scout - Frosinone
3 Dec 2028
Sunday
Process

Personality

Adaptability (8) Ambition (14) Controversy (6) Loyalty (5) Pressure (8) Professionalism (16) Sportsmanship (9) Temperament (3)

Profile

Coaching Style Democratic
License Continental A
Determination 8
Man Management 11
Motivating 11
Discipline 12
Job Satisfaction
100%
Fatigue
0%
Role Chief Scout
Wage 81.8K p/w
Contract 14.03.2029

Performance

Behaviour Good
Training Effectiveness
43%
Player Development
50%
Injury Prevention
35%
Tactical Implementation
20%

Recent Events

Attended a recruitment meeting now
Recommended a transfer target now
Attended a recruitment meeting 7d ago
Recommended a transfer target 7d ago
Attended a recruitment meeting 7d ago
Attended a recruitment meeting 7d ago
Attended a recruitment meeting 14d ago
Attended a recruitment meeting 14d ago

Currently Monitoring

168
Player Club Status Ability Confidence Watched Last Observed Latest Vote
Keita Baldé Monza Active 137 / 137 42% 1 / 1m 01.11.2028 -
Trey Nyoni Rotherham United Active 140 / 151 40% 5 29.08.2028 -
Branimir Mlačić Udinese Active 126 / 128 40% 1 29.08.2028 -
Mirza Ćatović VfB Stuttgart Active 129 / 129 40% 1 29.08.2028 -
Alessandro Raimo Catania Report Ready 109 / 103 83% 1 28.08.2028 -
Celías Ingenthron Platense Active 120 / 129 40% 1 21.08.2028 -
Johan Solstad-Nøis Tromso Active 103 / 98 40% 1 21.08.2028 -
Honest Ahanor Atalanta Active 136 / 142 40% 1 21.08.2028 -
Gianluca Caprari Padova Report Ready 123 / 121 83% 1 07.08.2028 -
Luka Vušković Tottenham Active 150 / 160 40% 2 31.07.2028 -
Riquelme Thompson-Jones Accrington Stanley Active 113 / 120 40% 8 31.07.2028 -
Tyler Fletcher Rotherham United Active 114 / 126 40% 3 31.07.2028 -
Kiani Inge Groningen Active 116 / 120 40% 5 26.06.2028 -
Ayden Heaven Portsmouth Active 148 / 147 40% 9 26.06.2028 -
Christos Mouzakitis Hull City Active 141 / 145 40% 4 11.06.2028 -
Augusto Bando Ascoli Active 110 / 113 40% 4 31.05.2028 -
Nicolò Moranduzzo Renate Active 90 / 93 40% 5 30.05.2028 -
Giovanni Leoni Lincoln City Active 144 / 141 40% 5 29.05.2028 -
Josh Nichols Oldham Athletic Active 123 / 125 40% 2 20.05.2028 -
Amine Boukamir Charleroi Active 105 / 115 40% 3 19.05.2028 -
Bernardo Lima Porto Active 107 / 119 40% 6 19.05.2028 -
Jan Bürger Northampton Town Active 120 / 120 40% 6 17.05.2028 -
Olivier Leroux Mouscron Active 106 / 108 40% 17 13.05.2028 -
Daniel Banjaqui Benfica Active 124 / 133 40% 5 13.05.2028 -
Raul Tassoni Catanzaro Active 100 / 102 40% 1 04.05.2028 -
Jorthy Mokio ADO Den Haag Active 131 / 140 40% 5 21.04.2028 -
Andrea Bertoncini Triestina Active 96 / 107 40% 6 19.04.2028 -
Josh Acheampong Everton Active 140 / 142 40% 5 19.04.2028 -
Federico Matarán Giana Erminio Active 102 / 108 40% 8 17.04.2028 -
Alessio Insignito Spezia Active 106 / 115 40% 2 17.04.2028 -
Andrea Cogoni Cosenza Active 112 / 120 40% 4 17.04.2028 -
Martim Cunha Porto Active 107 / 118 40% 11 15.04.2028 -
Miguel Figueiredo Benfica Active 116 / 125 40% 7 13.04.2028 -
Tobiáš Pališčák Zlin Active 95 / 116 40% 2 13.03.2028 -
Matvey Bardachev Zenit Active 106 / 112 40% 3 08.03.2028 -
Olivier Mambwa Young Boys Active 111 / 114 40% 2 28.02.2028 -
Andrey Ivlev Nizhniy Novgorod Active 105 / 113 40% 1 17.02.2028 -
Colin Guske Orlando City Active 96 / 108 40% 1 11.02.2028 -
Mao Hosoya Santos Active 134 / 135 67% 1 01.01.2028 -
Kwesi Sorotu Badori Berekum Chelsea Active 94 / 94 40% 2 31.12.2027 -
Yury Oyarzo Racing Active 85 / 104 40% 1 31.12.2027 -
Nicolas Sport Recife Active 112 / 105 40% 2 30.12.2027 -
Niccolò Fortini Fiorentina Active 138 / 148 40% 1 29.12.2027 -
Victor Hernandez Santa Fe Active 117 / 138 40% 6 28.12.2027 -
Juan Camilo Córdoba Deportivo Pereira Active 86 / 106 40% 1 28.12.2027 -
Pedro Vian Seewald Dolomiti Bellunesi Active 99 / 112 40% 4 25.12.2027 -
Ignacio Fernández Boston River Active 89 / 95 40% 2 24.12.2027 -
Jon Esenga IF Elfsborg Active 94 / 115 40% 2 24.12.2027 -
Joel Ezra Enyimba Active 89 / 100 40% 2 22.12.2027 -
Diego Vargas Universidad de Concepcion Active 100 / 110 40% 1 18.12.2027 -
Hugo Rojas Instituto Active 108 / 100 40% 2 17.12.2027 -
Lucas Camejo River Plate Active 81 / 98 40% 2 15.12.2027 -
Frederik Damkjer Viborg Active 88 / 90 40% 1 14.12.2027 -
Francisco Triver River Plate Active 93 / 101 40% 1 13.12.2027 -
Kerim Alajbegović Modena Active 136 / 145 40% 3 12.12.2027 -
Musa Malik Ikorodu City Active 96 / 105 40% 4 12.12.2027 -
Ousseynou Seck Randers Active 115 / 128 40% 1 12.12.2027 -
Emmanuel Ndubueze Shooting Stars Active 84 / 102 40% 2 09.12.2027 -
Joseph Abah Remo Stars Active 87 / 104 40% 1 09.12.2027 -
Luis Yanes Real Cartagena Active 84 / 86 40% 1 08.12.2027 -
Chimobi Igwilo Rangers International Active 90 / 92 40% 1 08.12.2027 -
Alphadjo Cissé Lecce Active 132 / 136 40% 2 07.12.2027 -
Nupe Godstime Bayelsa United Active 96 / 104 40% 1 07.12.2027 -
Kabiru Abdullahi Barau Active 82 / 90 40% 3 06.12.2027 -
Pedro Baltika Active 137 / 147 40% 1 04.12.2027 -
Giovanni Baroni Talleres Active 116 / 112 40% 1 30.11.2027 -
Sindre Walle Egeli Udinese Active 138 / 133 40% 2 29.11.2027 -
Gianluca Prestianni Benfica Active 144 / 145 40% 2 29.11.2027 -
Alex Verón Vélez Active 107 / 129 40% 1 29.11.2027 -
Matías Arias Vélez Active 119 / 111 40% 2 28.11.2027 -
Francisco Marchant Colo-Colo Active 97 / 89 40% 1 27.11.2027 -
Tiago Pucciarelli IF Elfsborg Active 103 / 93 40% 2 26.11.2027 -
Abdulrahman Hamisu Niger Tornadoes Active 88 / 100 40% 2 25.11.2027 -
Ruben Ramos LA Galaxy Active 105 / 109 40% 1 22.11.2027 -
Tomás Aranda Boca Juniors Active 117 / 122 40% 1 21.11.2027 -
Keyano Marrah Hammarby Active 95 / 89 40% 1 20.11.2027 -
Idris Ajiya Nasarawa United Active 78 / 82 40% 1 20.11.2027 -
Elion Krosa Odd Active 82 / 103 40% 1 19.11.2027 -
Roberto Insigne Catania Active 112 / 109 79% 1 02.08.2027 -
Kike Pérez Venezia Active 133 / 132 79% 1 01.06.2027 -
Sascha Britschgi AC Milan Active 124 / 126 40% 7 30.05.2027 -
Riyad Idrissi Cagliari Active 121 / 129 40% 6 27.05.2027 -
Riley Owen Stevenage Active 101 / 101 40% 4 27.05.2027 -
Samuele di Benedetto Twente Active 113 / 120 40% 2 26.05.2027 -
Ezra Mayers West Ham United Active 116 / 121 40% 2 24.05.2027 -
Hosea Michael Remo Stars Active 81 / 102 40% 1 24.05.2027 -
Bence Dárdai VfL Wolfsburg Active 132 / 129 40% 3 22.05.2027 -
Kazunari Kita Real Sociedad Active 102 / 110 40% 6 20.05.2027 -
Tiago Freitas Benfica Active 108 / 109 40% 6 16.05.2027 -
Jacopo Bacci Sorrento Active 103 / 110 40% 2 12.05.2027 -
David Ozoh Derby County Active 116 / 123 40% 2 19.04.2027 -
Tommaso Cecotti Carpi Active 92 / 98 40% 5 15.04.2027 -
Charlie Gray Fleetwood Town Active 94 / 90 40% 1 12.04.2027 -
Leandro Martins Benfica Active 95 / 100 40% 4 09.04.2027 -
Gonçalo Oliveira Benfica Active 109 / 113 40% 5 07.04.2027 -
Afriyie Sulemana WAFA Active 90 / 94 40% 2 01.04.2027 -
Alessandro Zoboletti Sambenedettese Active 92 / 90 40% 7 30.03.2027 -
Konta Ismaily Active 94 / 100 40% 1 25.03.2027 -
Samuele Diodato Lumezzane Active 87 / 97 40% 1 04.03.2027 -
Edwin Asamoah Berekum Chelsea Active 86 / 98 40% 4 26.02.2027 -
Federico Valentini Forli Active 89 / 88 40% 2 22.02.2027 -
Cemran Dansin Orlando Pirates Active 107 / 116 40% 1 09.02.2027 -
Kamaldeen Atiemo Wa All Stars Active 105 / 109 40% 1 08.02.2027 -
Simphiwe Selepe Orlando Pirates Active 110 / 116 40% 1 03.02.2027 -
Sampson Dweh Mallorca Active 133 / 134 66% 1 01.01.2027 -
Amin Sarr Hellas Verona Active 131 / 120 40% 6 31.12.2026 Monitor
Luca Moro Padova Active 123 / 112 40% 4 31.12.2026 -
Wandile Duba ASO Chlef Active 110 / 111 40% 1 31.12.2026 -
Pontus Almqvist Parma Active 132 / 121 40% 1 30.12.2026 -
Armstrong Oko-Flex Levski Active 117 / 127 40% 1 30.12.2026 -
Nicolò Fagioli Fiorentina Active 141 / 147 40% 1 26.12.2026 -
Kirill Glebov CSKA Moscow Active 123 / 116 40% 2 25.12.2026 -
Marcelo Allende Mamelodi Sundowns Active 136 / 136 40% 1 25.12.2026 -
Vitinha Genoa Active 129 / 135 40% 2 23.12.2026 -
Ivo Mammini Beitar Jerusalem Active 115 / 117 40% 3 22.12.2026 -
Etiosa Ighodaro Kaizer Chiefs Active 108 / 102 40% 2 21.12.2026 -
Matteo Rover Reggiana Active 123 / 123 40% 1 20.12.2026 -
Giuseppe Di Serio Spezia Active 117 / 111 40% 1 18.12.2026 -
Santiago Pierotti Lecce Active 134 / 126 40% 4 17.12.2026 -
Yeangel Montero Naxxar Lions Active 110 / 94 40% 1 15.12.2026 -
Lassina Traoré Shakhtar Active 123 / 123 40% 1 14.12.2026 -
Matheus Davó Maccabi Netanya Active 115 / 108 40% 1 13.12.2026 -
Talles Magno New York City Active 124 / 119 40% 3 12.12.2026 -
Stiven Shpendi Empoli Active 114 / 119 40% 6 12.12.2026 -
Lewis Ferguson Bologna Active 144 / 146 40% 1 12.12.2026 -
Lorenzo Colombo Genoa Active 133 / 142 40% 5 11.12.2026 -
Gianluca Scamacca Atalanta Active 147 / 153 40% 2 11.12.2026 -
Radek Šiler Podbrezova Active 112 / 112 40% 1 11.12.2026 -
Nicolò Zaniolo Udinese Active 140 / 140 40% 8 06.12.2026 -
Andrea Colpani Monza Active 137 / 143 40% 2 06.12.2026 -
Mehdi Dorval Catanzaro Active 132 / 122 40% 1 06.12.2026 -
Mattia Felici Cagliari Active 124 / 131 40% 1 04.12.2026 -
Suleiman Camara Slovan Bratislava Active 118 / 123 40% 1 03.12.2026 -
Matej Trusa DAC Dunajska Streda Active 110 / 120 40% 2 01.12.2026 -
Wessam Abou Ali Columbus Crew Active 128 / 127 40% 4 24.11.2026 -
Giacomo Raspadori Atalanta Active 143 / 147 40% 1 21.11.2026 -
Bienvenue Kanakimana Zbrojovka Brno Active 124 / 124 40% 1 19.11.2026 -
Sota Kitano Red Bull Salzburg Active 119 / 128 40% 3 18.11.2026 Monitor
Tadeo Allende Inter Miami CF Active 128 / 135 40% 3 17.11.2026 -
Don Bolsius Ascoli Active 108 / 96 40% 1 17.11.2026 -
Willem Geubbels Lecce Active 125 / 127 40% 3 14.11.2026 -
Jens Petter Hauge Bodo/Glimt Active 148 / 137 40% 1 14.11.2026 -
Marco Pašalić Orlando City Active 123 / 128 40% 1 11.11.2026 -
David Miculescu FCSB Active 113 / 111 40% 2 05.11.2026 -
Bradley Zwane SuperSport United Active 117 / 108 40% 1 04.11.2026 -
Tommaso Pobega Bologna Active 139 / 140 40% 2 03.11.2026 -
Kelvin Yeboah Minnesota United FC Active 132 / 130 40% 1 30.10.2026 -
Marco Tumminello Benevento Active 110 / 109 40% 2 29.10.2026 -
Germán Berterame Inter Miami CF Active 132 / 129 40% 2 29.10.2026 -
Reda Khadra Qarabag Active 131 / 124 40% 1 27.10.2026 -
André Wolverhampton Active 137 / 149 40% 1 27.10.2026 -
Tyrese Campbell Sheffield United Active 126 / 130 40% 3 25.10.2026 -
Bénie Traoré New York City Active 122 / 138 40% 1 21.10.2026 -
Assad Al Hamlawi Universitatea Craiova Active 127 / 108 40% 1 20.10.2026 -
Kwadwo Baah Watford Active 130 / 125 40% 1 19.10.2026 -
Ramiro Ruiz Rodríguez Atlético Tucumán Active 121 / 127 40% 1 13.10.2026 -
Jesus Ferreira Seattle Sounders Active 124 / 124 40% 1 12.10.2026 -
Jackson Muleka Konyaspor Active 121 / 111 40% 1 12.10.2026 -
Lucas Da Cunha Como Active 138 / 143 40% 1 11.10.2026 -
Joshua Zirkzee Manchester United Active 141 / 147 40% 1 07.10.2026 -
Duk Atlas Active 109 / 102 40% 1 06.10.2026 -
Alejandro Piedrahita Deportivo Pereira Active 129 / 133 40% 1 06.10.2026 -
Matt O'Riley Brighton Active 140 / 142 40% 1 06.10.2026 -
Florentino Luís Ipswich Town Active 139 / 144 40% 1 06.10.2026 -
Edoardo Pieragnolo Sassuolo Active 125 / 129 76% 1 17.08.2026 Approve
Mateus Mané Burnley Active 127 / 144 40% 1 17.08.2026 -
Ignacio Perruzzi San Lorenzo Active 119 / 132 40% 1 11.08.2026 -
Lucas Bergvall Tottenham Active 142 / 156 40% 1 01.08.2026 -